createdAt,value
2023-05-19T00:03:09.200Z,58.31
2023-05-19T00:08:12.107Z,58.58
2023-05-19T00:13:14.912Z,58.62
2023-05-19T00:18:17.498Z,58.87
2023-05-19T00:23:20.128Z,59.31
2023-05-19T00:28:22.815Z,62.00
2023-05-19T00:33:25.572Z,65.63
2023-05-19T00:38:28.482Z,58.85
2023-05-19T00:43:31.687Z,53.74
2023-05-19T00:48:34.288Z,56.26
2023-05-19T00:53:36.847Z,58.29
2023-05-19T00:58:39.570Z,59.58
2023-05-19T01:03:43.761Z,59.77
2023-05-19T01:08:46.590Z,59.68
2023-05-19T01:13:49.542Z,59.36
2023-05-19T01:19:19.638Z,59.93
2023-05-19T01:24:57.004Z,65.26
2023-05-19T01:30:22.295Z,57.04
2023-05-19T01:35:26.785Z,55.89
2023-05-19T01:40:30.865Z,58.31
2023-05-19T01:45:34.297Z,61.04
2023-05-19T01:50:36.913Z,60.51
2023-05-19T01:55:46.304Z,66.62
2023-05-19T02:01:04.111Z,64.11
2023-05-19T02:06:18.271Z,54.06
2023-05-19T02:12:00.316Z,54.61
2023-05-19T02:17:04.588Z,58.36
2023-05-19T02:22:07.250Z,58.98
2023-05-19T02:27:09.847Z,60.43
2023-05-19T02:32:14.887Z,67.12
2023-05-19T02:37:17.777Z,58.63
2023-05-19T02:42:20.788Z,54.94
2023-05-19T02:47:23.432Z,59.04
2023-05-19T02:52:26.209Z,61.10
2023-05-19T02:57:30.039Z,66.25
2023-05-19T03:02:34.145Z,59.46
2023-05-19T03:07:36.960Z,55.47
2023-05-19T03:12:39.733Z,56.78
2023-05-19T03:17:42.739Z,58.12
2023-05-19T03:22:45.340Z,61.34
2023-05-19T03:27:48.045Z,66.97
2023-05-19T03:32:52.065Z,59.88
2023-05-19T03:37:54.858Z,53.90
2023-05-19T03:42:57.454Z,56.50
2023-05-19T03:48:00.073Z,59.69
2023-05-19T03:53:02.690Z,61.80
2023-05-19T03:58:05.305Z,63.40
2023-05-19T04:03:08.458Z,55.79
2023-05-19T04:08:11.179Z,56.66
2023-05-19T04:13:13.772Z,59.29
2023-05-19T04:18:16.384Z,59.85
2023-05-19T04:23:18.960Z,60.19
2023-05-19T04:28:21.649Z,65.01
2023-05-19T04:33:24.664Z,56.80
2023-05-19T04:38:29.966Z,56.81
2023-05-19T04:43:32.528Z,60.06
2023-05-19T04:48:35.164Z,61.52
2023-05-19T04:53:40.179Z,62.01
2023-05-19T04:58:44.826Z,62.56
2023-05-19T05:03:47.626Z,54.59
2023-05-19T05:08:52.183Z,55.64
2023-05-19T05:13:58.030Z,58.01
2023-05-19T05:19:01.647Z,58.36
2023-05-19T05:24:04.728Z,59.90
2023-05-19T05:29:09.262Z,60.35
2023-05-19T05:34:11.904Z,60.92
2023-05-19T05:39:14.518Z,61.12
2023-05-19T05:44:17.198Z,61.42
2023-05-19T05:49:20.394Z,61.54
2023-05-19T05:54:24.802Z,60.54
2023-05-19T05:59:27.550Z,60.89
2023-05-19T06:04:31.202Z,60.21
2023-05-19T06:09:34.099Z,59.56
2023-05-19T06:14:36.760Z,59.73
2023-05-19T06:19:39.384Z,58.60
2023-05-19T06:24:42.038Z,58.72
2023-05-19T06:29:44.617Z,58.62
2023-05-19T06:34:53.956Z,58.71
2023-05-19T06:39:56.540Z,58.54
2023-05-19T06:44:59.259Z,58.67
2023-05-19T06:50:01.939Z,57.01
2023-05-19T06:55:07.728Z,57.54
2023-05-19T07:00:13.860Z,54.45
2023-05-19T07:05:17.947Z,54.76
2023-05-19T07:10:21.925Z,55.04
2023-05-19T07:15:24.513Z,55.40
2023-05-19T07:20:27.154Z,55.51
2023-05-19T07:25:30.642Z,55.48
2023-05-19T07:30:33.610Z,54.41
2023-05-19T07:35:36.571Z,52.04
2023-05-19T07:40:39.194Z,52.29
2023-05-19T07:45:41.822Z,53.71
2023-05-19T07:50:44.396Z,51.85
2023-05-19T07:55:47.097Z,53.06
2023-05-19T08:00:49.734Z,52.69
2023-05-19T08:05:52.529Z,52.90
2023-05-19T08:10:55.459Z,52.49
2023-05-19T08:15:59.907Z,51.53
2023-05-19T08:21:02.702Z,50.86
2023-05-19T08:26:05.740Z,49.93
2023-05-19T08:31:08.399Z,49.60
2023-05-19T08:36:11.705Z,49.02
2023-05-19T08:41:14.319Z,50.39
2023-05-19T08:46:17.122Z,50.76
2023-05-19T08:51:39.053Z,50.42
2023-05-19T08:56:45.682Z,48.56
2023-05-19T09:01:49.891Z,49.58
2023-05-19T09:06:52.540Z,49.59
2023-05-19T09:11:55.185Z,48.54
2023-05-19T09:16:57.876Z,47.79
2023-05-19T09:22:03.361Z,45.52
2023-05-19T09:27:06.187Z,45.81
2023-05-19T09:32:08.894Z,45.41
2023-05-19T09:37:13.078Z,44.81
2023-05-19T09:42:16.714Z,45.44
2023-05-19T09:47:19.275Z,46.00
2023-05-19T09:52:22.192Z,46.11
2023-05-19T09:57:28.422Z,45.90
2023-05-19T10:02:32.196Z,45.80
2023-05-19T10:07:35.153Z,43.51
2023-05-19T10:12:39.278Z,43.65
2023-05-19T10:17:43.715Z,44.59
2023-05-19T10:22:46.768Z,45.26
2023-05-19T10:27:58.390Z,46.05
2023-05-19T10:33:03.756Z,44.98
2023-05-19T10:38:42.737Z,45.15
2023-05-19T10:44:34.394Z,46.38
2023-05-19T10:49:37.337Z,47.24
2023-05-19T10:54:46.899Z,47.97
2023-05-19T10:59:49.935Z,48.42
2023-05-19T11:04:53.450Z,49.26
2023-05-19T11:09:56.047Z,50.55
2023-05-19T11:14:59.372Z,51.04
2023-05-19T11:20:01.953Z,52.00
2023-05-19T11:25:05.228Z,52.58
2023-05-19T11:30:09.319Z,53.71
2023-05-19T11:35:12.462Z,54.65
2023-05-19T11:40:15.724Z,55.15
2023-05-19T11:45:27.323Z,55.59
2023-05-19T11:50:31.927Z,55.50
2023-05-19T11:55:34.576Z,56.01
2023-05-19T12:00:40.740Z,55.78
2023-05-19T12:05:46.858Z,57.25
2023-05-19T12:10:53.203Z,57.20
2023-05-19T12:22:56.538Z,59.86
2023-05-19T12:28:00.731Z,60.88
2023-05-19T12:33:03.600Z,61.27
2023-05-19T12:38:06.767Z,61.10
2023-05-19T12:43:19.081Z,61.25
2023-05-19T12:48:22.887Z,63.20
2023-05-19T12:53:28.103Z,56.39
2023-05-19T12:58:34.268Z,58.35
2023-05-19T13:03:43.869Z,59.71
2023-05-19T13:08:47.321Z,61.00
2023-05-19T13:13:50.049Z,63.48
2023-05-19T13:18:53.550Z,58.44
2023-05-19T13:23:56.291Z,57.11
2023-05-19T13:28:59.029Z,59.05
2023-05-19T13:34:02.634Z,59.75
2023-05-19T13:39:05.460Z,60.28
2023-05-19T13:44:08.056Z,59.19
2023-05-19T13:49:10.618Z,58.77
2023-05-19T13:54:13.208Z,59.46
2023-05-19T13:59:17.290Z,60.02
2023-05-19T14:04:20.067Z,60.66
2023-05-19T14:09:23.121Z,61.57
2023-05-19T14:14:25.918Z,64.16
2023-05-19T14:19:30.282Z,56.78
2023-05-19T14:24:33.050Z,56.72
2023-05-19T14:29:35.799Z,57.87
2023-05-19T14:34:38.584Z,58.52
2023-05-19T14:39:41.268Z,58.87
2023-05-19T14:44:44.006Z,58.93
2023-05-19T14:49:46.829Z,59.31
2023-05-19T14:54:49.485Z,59.25
2023-05-19T14:59:52.087Z,58.66
2023-05-19T15:04:54.651Z,58.80
2023-05-19T15:09:57.273Z,59.08
2023-05-19T15:14:59.893Z,59.32
2023-05-19T15:20:02.655Z,59.54
2023-05-19T15:25:05.951Z,61.14
2023-05-19T15:30:08.811Z,62.02
2023-05-19T15:35:11.475Z,61.59
2023-05-19T15:40:14.192Z,61.23
2023-05-19T15:45:16.934Z,60.73
2023-05-19T15:50:19.601Z,60.63
2023-05-19T15:55:22.240Z,60.92
2023-05-19T16:00:25.057Z,61.58
2023-05-19T16:05:27.833Z,61.85
2023-05-19T16:10:30.557Z,62.00
2023-05-19T16:15:33.288Z,62.11
2023-05-19T16:20:35.996Z,63.58
2023-05-19T16:25:38.731Z,60.83
2023-05-19T16:30:41.415Z,55.61
2023-05-19T16:35:44.042Z,57.65
2023-05-19T16:40:46.617Z,59.09
2023-05-19T16:45:49.423Z,60.85
2023-05-19T16:50:52.448Z,61.62
2023-05-19T16:55:55.356Z,63.48
2023-05-19T17:00:58.096Z,56.78
2023-05-19T17:06:00.965Z,56.15
2023-05-19T17:11:03.574Z,59.08
2023-05-19T17:16:06.349Z,60.00
2023-05-19T17:21:09.107Z,62.88
2023-05-19T17:26:11.989Z,61.58
2023-05-19T17:31:15.846Z,54.18
2023-05-19T17:36:18.630Z,57.48
2023-05-19T17:41:21.846Z,59.48
2023-05-19T17:46:24.501Z,61.66
2023-05-19T17:51:27.788Z,63.77
2023-05-19T17:56:33.603Z,57.56
2023-05-19T18:01:36.573Z,56.40
2023-05-19T18:06:40.672Z,59.26
2023-05-19T18:11:43.591Z,61.61
2023-05-19T18:16:47.360Z,63.74
2023-05-19T18:21:50.096Z,57.46
2023-05-19T18:26:52.754Z,57.20
2023-05-19T18:31:55.587Z,60.23
2023-05-19T18:36:58.211Z,64.07
2023-05-19T18:42:01.933Z,59.72
2023-05-19T18:47:05.046Z,57.00
2023-05-19T18:52:08.070Z,61.32
2023-05-19T18:57:10.832Z,62.58
2023-05-19T19:02:13.395Z,56.92
2023-05-19T19:07:16.222Z,59.28
2023-05-19T19:12:20.474Z,62.15
2023-05-19T19:17:23.508Z,62.19
2023-05-19T19:22:26.512Z,56.70
2023-05-19T19:27:31.230Z,59.73
2023-05-19T19:32:33.954Z,64.24
2023-05-19T19:37:36.662Z,59.00
2023-05-19T19:42:40.307Z,59.52
2023-05-19T19:47:43.029Z,64.42
2023-05-19T19:52:45.702Z,59.60
2023-05-19T19:57:49.579Z,61.17
2023-05-19T20:03:04.463Z,65.04
2023-05-19T20:08:09.028Z,57.78
2023-05-19T20:13:11.717Z,62.43
2023-05-19T20:18:14.361Z,63.12
2023-05-19T20:23:17.198Z,58.86
2023-05-19T20:28:21.309Z,59.94
2023-05-19T20:33:25.694Z,65.73
2023-05-19T20:38:28.324Z,61.03
2023-05-19T20:43:32.200Z,57.79
2023-05-19T20:48:34.747Z,61.89
2023-05-19T20:53:37.526Z,64.33
2023-05-19T20:58:40.140Z,58.43
2023-05-19T21:03:42.719Z,60.48
2023-05-19T21:08:45.427Z,64.16
2023-05-19T21:13:48.053Z,59.22
2023-05-19T21:18:50.900Z,58.95
2023-05-19T21:23:53.558Z,64.97
2023-05-19T21:28:56.167Z,59.90
2023-05-19T21:33:58.870Z,59.41
2023-05-19T21:39:01.563Z,64.16
2023-05-19T21:44:04.339Z,60.39
2023-05-19T21:49:08.631Z,57.66
2023-05-19T21:54:11.419Z,61.03
2023-05-19T21:59:14.059Z,65.23
2023-05-19T22:04:18.513Z,61.44
2023-05-19T22:09:21.664Z,57.55
2023-05-19T22:14:24.364Z,60.54
2023-05-19T22:19:27.047Z,66.15
2023-05-19T22:24:29.739Z,60.05
2023-05-19T22:29:32.907Z,56.84
2023-05-19T22:34:35.589Z,64.53
2023-05-19T22:39:39.001Z,62.21
2023-05-19T22:44:43.356Z,57.69
2023-05-19T22:49:46.314Z,60.33
2023-05-19T22:54:48.945Z,65.14
2023-05-19T22:59:51.522Z,60.38
2023-05-19T23:04:54.144Z,57.87
2023-05-19T23:09:56.761Z,62.08
2023-05-19T23:14:59.459Z,65.70
2023-05-19T23:20:02.497Z,60.16
2023-05-19T23:25:07.684Z,57.56
2023-05-19T23:30:10.767Z,63.91
2023-05-19T23:35:15.737Z,62.96
2023-05-19T23:40:18.360Z,57.18
2023-05-19T23:45:20.968Z,58.37
2023-05-19T23:50:23.722Z,63.86
2023-05-19T23:55:26.301Z,62.02
